createdAt,value
2024-04-13T00:00:31.294Z,102042.59
2024-04-13T00:02:57.937Z,102056.63
2024-04-13T00:05:28.037Z,102055.75
2024-04-13T00:07:56.633Z,102069.09
2024-04-13T00:10:25.384Z,102066.63
2024-04-13T00:12:52.352Z,102056.00
2024-04-13T00:15:19.203Z,102063.56
2024-04-13T00:17:45.880Z,102059.03
2024-04-13T00:20:12.422Z,102050.50
2024-04-13T00:22:39.042Z,102023.41
2024-04-13T00:25:05.970Z,102033.81
2024-04-13T00:27:32.955Z,102041.66
2024-04-13T00:30:00.029Z,102041.78
2024-04-13T00:32:27.210Z,102029.25
2024-04-13T00:34:53.756Z,102039.09
2024-04-13T00:37:20.330Z,102047.09
2024-04-13T00:39:47.011Z,102032.75
2024-04-13T00:42:16.028Z,102032.06
2024-04-13T00:44:43.737Z,102026.47
2024-04-13T00:47:11.623Z,102024.94
2024-04-13T00:49:39.305Z,102010.13
2024-04-13T00:52:12.635Z,102018.84
2024-04-13T00:54:41.336Z,102026.28
2024-04-13T00:57:10.077Z,102030.09
2024-04-13T00:59:40.201Z,102022.81
2024-04-13T01:02:20.121Z,102032.81
2024-04-13T01:04:52.595Z,102027.59
2024-04-13T01:07:19.485Z,102022.25
2024-04-13T01:09:49.146Z,102025.22
2024-04-13T01:12:16.488Z,102022.53
2024-04-13T01:14:45.608Z,102018.88
2024-04-13T01:17:12.569Z,102005.41
2024-04-13T01:19:39.044Z,102032.56
2024-04-13T01:22:11.882Z,102025.44
2024-04-13T01:24:41.580Z,102011.81
2024-04-13T01:27:10.193Z,102028.59
2024-04-13T01:29:39.182Z,102025.91
2024-04-13T01:32:06.781Z,101995.50
2024-04-13T01:34:33.729Z,102028.94
2024-04-13T01:37:00.179Z,102027.69
2024-04-13T01:39:29.068Z,102031.22
2024-04-13T01:41:56.054Z,102031.94
2024-04-13T01:44:22.476Z,102033.66
2024-04-13T01:46:49.065Z,102044.09
2024-04-13T01:49:15.584Z,102039.50
2024-04-13T01:51:42.201Z,102023.41
2024-04-13T01:54:08.771Z,102034.09
2024-04-13T01:56:35.350Z,102030.38
2024-04-13T01:59:04.915Z,102037.66
2024-04-13T02:01:35.210Z,102045.81
2024-04-13T02:04:02.071Z,102043.94
2024-04-13T02:06:29.077Z,102045.97
2024-04-13T02:08:57.821Z,102047.78
2024-04-13T02:11:24.443Z,102052.50
2024-04-13T02:13:51.137Z,102049.72
2024-04-13T02:16:19.947Z,102028.88
2024-04-13T02:18:46.836Z,102048.91
2024-04-13T02:21:13.438Z,102041.78
2024-04-13T02:23:40.043Z,102058.72
2024-04-13T02:26:09.283Z,102054.53
2024-04-13T02:28:36.248Z,102044.06
2024-04-13T02:31:02.904Z,102050.09
2024-04-13T02:33:29.487Z,102020.38
2024-04-13T02:36:04.495Z,102053.59
2024-04-13T02:38:32.991Z,102050.22
2024-04-13T02:41:00.801Z,102052.00
2024-04-13T02:43:35.727Z,102050.53
2024-04-13T02:46:12.440Z,102046.94
2024-04-13T02:48:40.382Z,102048.84
2024-04-13T02:51:07.740Z,102036.19
2024-04-13T02:53:38.463Z,102040.84
2024-04-13T02:56:08.609Z,102034.63
2024-04-13T02:58:35.345Z,102031.78
2024-04-13T03:01:04.860Z,102028.94
2024-04-13T03:03:31.805Z,102021.78
2024-04-13T03:06:16.646Z,102019.94
2024-04-13T03:08:50.024Z,102030.88
2024-04-13T03:11:17.525Z,102031.22
2024-04-13T03:13:44.589Z,102023.84
2024-04-13T03:16:11.557Z,102015.38
2024-04-13T03:18:41.785Z,102021.44
2024-04-13T03:21:08.567Z,102026.13
2024-04-13T03:23:36.400Z,102019.03
2024-04-13T03:26:08.101Z,102011.88
2024-04-13T03:28:36.076Z,102030.13
2024-04-13T03:31:03.818Z,102020.72
2024-04-13T03:33:30.449Z,102023.50
2024-04-13T03:36:08.248Z,102023.41
2024-04-13T03:38:35.019Z,102031.19
2024-04-13T03:41:07.977Z,102029.31
2024-04-13T03:43:35.902Z,102028.25
2024-04-13T03:46:02.652Z,102022.13
2024-04-13T03:48:29.402Z,102018.97
2024-04-13T03:50:57.014Z,102026.22
2024-04-13T03:53:26.004Z,102023.19
2024-04-13T03:55:52.522Z,102021.75
2024-04-13T03:58:21.327Z,102008.56
2024-04-13T04:00:50.134Z,102019.31
2024-04-13T04:03:17.995Z,102021.75
2024-04-13T04:05:44.866Z,102024.66
2024-04-13T04:08:11.379Z,102013.81
2024-04-13T04:10:38.009Z,102014.44
2024-04-13T04:13:06.754Z,102015.78
2024-04-13T04:15:34.215Z,102003.22
2024-04-13T04:18:03.908Z,102018.38
2024-04-13T04:20:34.542Z,102020.88
2024-04-13T04:23:01.662Z,102022.56
2024-04-13T04:25:28.346Z,102024.28
2024-04-13T04:27:55.623Z,102016.00
2024-04-13T04:30:24.310Z,102024.88
2024-04-13T04:32:51.118Z,102021.38
2024-04-13T04:35:20.294Z,102013.00
2024-04-13T04:37:48.893Z,102026.41
2024-04-13T04:40:15.514Z,102022.00
2024-04-13T04:42:42.171Z,102030.22
2024-04-13T04:45:11.577Z,102021.91
2024-04-13T04:47:38.259Z,102022.53
2024-04-13T04:50:07.525Z,102000.19
2024-04-13T04:52:34.147Z,102024.25
2024-04-13T04:55:02.878Z,102014.69
2024-04-13T04:57:29.868Z,102031.91
2024-04-13T04:59:56.916Z,102026.28
2024-04-13T05:02:23.876Z,102041.06
2024-04-13T05:04:50.373Z,102034.72
2024-04-13T05:07:20.791Z,102029.91
2024-04-13T05:09:49.526Z,102031.31
2024-04-13T05:12:16.195Z,102031.97
2024-04-13T05:14:42.768Z,102033.59
2024-04-13T05:17:14.444Z,102033.16
2024-04-13T05:19:43.465Z,102043.47
2024-04-13T05:22:10.160Z,102038.06
2024-04-13T05:24:38.623Z,102032.41
2024-04-13T05:27:07.835Z,102036.78
2024-04-13T05:29:36.133Z,102042.94
2024-04-13T05:32:04.653Z,102025.56
2024-04-13T05:34:31.191Z,102028.59
2024-04-13T05:36:57.747Z,102024.78
2024-04-13T05:39:26.386Z,102030.56
2024-04-13T05:41:52.940Z,102030.47
2024-04-13T05:44:21.722Z,102031.16
2024-04-13T05:46:48.338Z,102029.09
2024-04-13T05:49:17.249Z,102036.06
2024-04-13T05:51:46.655Z,102027.63
2024-04-13T05:54:15.515Z,102033.81
2024-04-13T05:56:42.188Z,102036.31
2024-04-13T05:59:08.959Z,102045.34
2024-04-13T06:01:37.973Z,102039.84
2024-04-13T06:04:04.976Z,102012.69
2024-04-13T06:06:31.639Z,102038.56
2024-04-13T06:08:58.179Z,102021.53
2024-04-13T06:11:24.922Z,102027.72
2024-04-13T06:13:53.927Z,102033.13
2024-04-13T06:16:22.848Z,102036.63
2024-04-13T06:19:01.204Z,102043.88
2024-04-13T06:21:29.460Z,102029.47
2024-04-13T06:24:06.240Z,102036.31
2024-04-13T06:26:38.481Z,102001.03
2024-04-13T06:29:13.521Z,102020.81
2024-04-13T06:31:40.150Z,102040.75
2024-04-13T06:34:10.211Z,102029.84
2024-04-13T06:36:41.694Z,102023.94
2024-04-13T06:39:09.730Z,102022.44
2024-04-13T06:41:36.339Z,102019.34
2024-04-13T06:44:04.466Z,102007.41
2024-04-13T06:46:31.885Z,102012.16
2024-04-13T06:48:58.521Z,102008.09
2024-04-13T06:51:25.218Z,101985.78
2024-04-13T06:53:51.843Z,102001.03
2024-04-13T06:56:18.575Z,102007.97
2024-04-13T06:58:45.113Z,101992.28
2024-04-13T07:01:14.234Z,102000.84
2024-04-13T07:03:45.679Z,102011.81
2024-04-13T07:06:12.342Z,102015.13
2024-04-13T07:08:44.116Z,102005.00
2024-04-13T07:11:13.941Z,102008.81
2024-04-13T07:13:40.523Z,102009.81
2024-04-13T07:16:07.265Z,102005.13
2024-04-13T07:18:34.011Z,102011.22
2024-04-13T07:21:01.633Z,102000.63
2024-04-13T07:23:28.294Z,101994.00
2024-04-13T07:25:59.005Z,101996.88
2024-04-13T07:28:26.322Z,101979.34
2024-04-13T07:30:52.902Z,101991.38
2024-04-13T07:33:20.864Z,101987.88
2024-04-13T07:35:50.063Z,101985.19
2024-04-13T07:38:16.773Z,101994.06
2024-04-13T07:40:46.451Z,101982.41
2024-04-13T07:43:15.211Z,101975.78
2024-04-13T07:45:46.131Z,101986.34
2024-04-13T07:48:12.972Z,101981.09
2024-04-13T07:50:39.504Z,101977.75
2024-04-13T07:53:06.052Z,101976.13
2024-04-13T07:55:32.580Z,101979.19
2024-04-13T07:57:59.306Z,101967.72
2024-04-13T08:00:25.953Z,101984.28
2024-04-13T08:02:52.593Z,101971.25
2024-04-13T08:05:19.255Z,101968.31
2024-04-13T08:07:48.096Z,101970.47
2024-04-13T08:10:14.917Z,101983.94
2024-04-13T08:12:41.582Z,101950.66
2024-04-13T08:15:10.032Z,101973.78
2024-04-13T08:17:39.658Z,101961.06
2024-04-13T08:20:10.391Z,101980.00
2024-04-13T08:22:37.653Z,101958.38
2024-04-13T08:25:04.845Z,101993.03
2024-04-13T08:27:33.642Z,101979.47
2024-04-13T08:30:00.590Z,101951.03
2024-04-13T08:32:27.137Z,101970.84
2024-04-13T08:34:53.837Z,101970.91
2024-04-13T08:37:22.909Z,101976.78
2024-04-13T08:39:51.535Z,101967.09
2024-04-13T08:42:32.137Z,101961.47
2024-04-13T08:45:01.558Z,101955.41
2024-04-13T08:47:30.907Z,101958.00
2024-04-13T08:49:59.710Z,101964.34
2024-04-13T08:52:31.218Z,101958.56
2024-04-13T08:54:58.232Z,101957.84
2024-04-13T08:57:26.628Z,101960.94
2024-04-13T08:59:53.692Z,101945.13
2024-04-13T09:02:24.036Z,101950.25
2024-04-13T09:04:51.661Z,101948.41
2024-04-13T09:07:26.833Z,101963.63
2024-04-13T09:09:54.930Z,101957.16
2024-04-13T09:12:21.626Z,101955.34
2024-04-13T09:14:48.207Z,101957.75
2024-04-13T09:17:14.991Z,101941.25
2024-04-13T09:19:45.360Z,101948.13
2024-04-13T09:22:11.953Z,101934.16
2024-04-13T09:24:44.921Z,101932.41
2024-04-13T09:27:21.938Z,101928.00
2024-04-13T09:29:48.647Z,101924.81
2024-04-13T09:32:25.847Z,101934.72
2024-04-13T09:34:55.732Z,101921.44
2024-04-13T09:37:24.713Z,101910.53
2024-04-13T09:40:01.226Z,101926.03
2024-04-13T09:42:28.416Z,101884.50
2024-04-13T09:45:06.836Z,101915.72
2024-04-13T09:47:38.241Z,101905.97
2024-04-13T09:50:07.943Z,101902.81
2024-04-13T09:52:35.211Z,101910.69
2024-04-13T09:55:03.514Z,101917.00
2024-04-13T09:57:30.261Z,101915.03
2024-04-13T09:59:57.300Z,101901.78
2024-04-13T10:02:27.153Z,101906.31
2024-04-13T10:04:54.046Z,101901.19
2024-04-13T10:07:23.010Z,101899.78
2024-04-13T10:09:55.043Z,101895.00
2024-04-13T10:12:27.070Z,101887.75
2024-04-13T10:14:56.785Z,101903.81
2024-04-13T10:17:23.689Z,101898.75
2024-04-13T10:19:54.765Z,101881.69
2024-04-13T10:22:31.690Z,101872.38
2024-04-13T10:25:09.142Z,101882.84
2024-04-13T10:27:36.612Z,101859.25
2024-04-13T10:30:04.564Z,101879.19
2024-04-13T10:32:31.453Z,101869.75
2024-04-13T10:35:07.521Z,101869.19
2024-04-13T10:37:39.015Z,101851.34
2024-04-13T10:40:07.585Z,101859.78
2024-04-13T10:42:39.278Z,101853.41
2024-04-13T10:45:16.062Z,101854.81
2024-04-13T10:47:44.040Z,101865.53
2024-04-13T10:50:20.423Z,101853.16
2024-04-13T10:52:47.719Z,101845.44
2024-04-13T10:55:19.245Z,101822.31
2024-04-13T10:57:51.864Z,101860.25
2024-04-13T11:00:19.679Z,101836.41
2024-04-13T11:02:47.928Z,101853.53
2024-04-13T11:05:20.266Z,101839.50
2024-04-13T11:07:50.014Z,101841.19
2024-04-13T11:10:19.052Z,101834.69
2024-04-13T11:12:45.945Z,101834.13
2024-04-13T11:15:14.931Z,101829.84
2024-04-13T11:17:41.631Z,101843.34
2024-04-13T11:20:08.465Z,101836.78
2024-04-13T11:22:35.860Z,101827.66
2024-04-13T11:25:03.468Z,101835.81
2024-04-13T11:27:31.380Z,101839.50
2024-04-13T11:29:59.626Z,101824.94
2024-04-13T11:32:26.876Z,101809.88
2024-04-13T11:34:56.964Z,101809.38
2024-04-13T11:37:23.985Z,101802.91
2024-04-13T11:39:51.938Z,101783.00
2024-04-13T11:42:26.914Z,101806.75
2024-04-13T11:45:00.986Z,101831.72
2024-04-13T11:47:27.907Z,101798.63
2024-04-13T11:49:56.901Z,101808.63
2024-04-13T11:52:23.710Z,101801.88
2024-04-13T11:54:51.041Z,101829.00
2024-04-13T11:57:18.075Z,101797.16
2024-04-13T11:59:49.427Z,101777.16
2024-04-13T12:02:21.706Z,101773.13
2024-04-13T12:04:49.027Z,101770.91
2024-04-13T12:07:18.327Z,101766.47
2024-04-13T12:09:45.124Z,101764.72
2024-04-13T12:12:13.888Z,101770.53
2024-04-13T12:14:47.317Z,101760.56
2024-04-13T12:17:23.871Z,101765.25
2024-04-13T12:19:50.992Z,101765.56
2024-04-13T12:22:23.571Z,101738.16
2024-04-13T12:24:50.508Z,101757.44
2024-04-13T12:27:17.439Z,101742.47
2024-04-13T12:29:44.223Z,101754.66
2024-04-13T12:32:11.376Z,101744.63
2024-04-13T12:34:45.583Z,101766.44
2024-04-13T12:37:24.594Z,101722.59
2024-04-13T12:39:55.598Z,101739.31
2024-04-13T12:42:24.481Z,101755.78
2024-04-13T12:44:51.695Z,101737.72
2024-04-13T12:47:20.637Z,101735.66
2024-04-13T12:49:47.159Z,101727.56
2024-04-13T12:52:16.185Z,101723.00
2024-04-13T12:54:54.329Z,101727.28
2024-04-13T12:57:20.985Z,101752.38
2024-04-13T13:00:05.805Z,101727.78
2024-04-13T13:02:35.179Z,101718.25
2024-04-13T13:05:01.757Z,101722.47
2024-04-13T13:07:28.267Z,101699.66
2024-04-13T13:09:54.820Z,101696.28
2024-04-13T13:12:21.668Z,101691.81
2024-04-13T13:14:50.247Z,101692.78
2024-04-13T13:17:18.901Z,101685.41
2024-04-13T13:19:47.918Z,101695.63
2024-04-13T13:22:14.506Z,101671.31
2024-04-13T13:24:40.964Z,101682.19
2024-04-13T13:27:12.184Z,101674.72
2024-04-13T13:29:40.827Z,101662.22
2024-04-13T13:32:07.748Z,101668.25
2024-04-13T13:34:34.331Z,101662.59
2024-04-13T13:37:00.815Z,101667.16
2024-04-13T13:39:27.355Z,101659.63
2024-04-13T13:41:53.864Z,101642.00
2024-04-13T13:44:20.443Z,101637.53
2024-04-13T13:46:50.302Z,101653.94
2024-04-13T13:49:18.245Z,101645.81
2024-04-13T13:51:44.875Z,101638.88
2024-04-13T13:54:11.743Z,101649.50
2024-04-13T13:56:38.965Z,101645.31
2024-04-13T13:59:09.008Z,101655.38
2024-04-13T14:01:35.613Z,101631.41
2024-04-13T14:04:02.223Z,101637.28
2024-04-13T14:06:28.878Z,101634.88
2024-04-13T14:08:57.484Z,101640.50
2024-04-13T14:11:24.085Z,101629.13
2024-04-13T14:13:50.584Z,101616.25
2024-04-13T14:16:17.159Z,101625.94
2024-04-13T14:18:43.794Z,101633.47
2024-04-13T14:21:10.386Z,101617.19
2024-04-13T14:23:36.952Z,101632.50
2024-04-13T14:26:03.592Z,101607.94
2024-04-13T14:28:30.046Z,101612.44
2024-04-13T14:30:57.094Z,101611.34
2024-04-13T14:33:26.734Z,101603.25
2024-04-13T14:35:53.466Z,101605.53
2024-04-13T14:38:20.776Z,101588.75
2024-04-13T14:40:47.348Z,101595.91
2024-04-13T14:43:13.882Z,101589.19
2024-04-13T14:45:40.631Z,101605.56
2024-04-13T14:48:07.741Z,101586.06
2024-04-13T14:50:37.002Z,101619.56
2024-04-13T14:53:03.603Z,101603.03
2024-04-13T14:55:30.059Z,101594.16
2024-04-13T14:57:57.249Z,101586.50
2024-04-13T15:00:23.929Z,101587.78
2024-04-13T15:02:50.483Z,101584.34
2024-04-13T15:05:19.326Z,101589.13
2024-04-13T15:07:45.847Z,101584.31
2024-04-13T15:10:12.475Z,101576.66
2024-04-13T15:12:41.440Z,101582.06
2024-04-13T15:15:08.222Z,101567.34
2024-04-13T15:17:35.926Z,101559.69
2024-04-13T15:20:02.729Z,101545.69
2024-04-13T15:22:29.900Z,101548.97
2024-04-13T15:25:02.765Z,101553.88
2024-04-13T15:27:31.753Z,101530.88
2024-04-13T15:29:58.614Z,101534.63
2024-04-13T15:32:25.299Z,101537.03
2024-04-13T15:34:54.689Z,101539.75
2024-04-13T15:37:33.632Z,101531.00
2024-04-13T15:40:00.256Z,101558.66
2024-04-13T15:42:27.320Z,101546.38
2024-04-13T15:44:54.918Z,101560.69
2024-04-13T15:47:21.738Z,101550.13
2024-04-13T15:49:52.947Z,101537.72
2024-04-13T15:52:21.146Z,101536.00
2024-04-13T15:54:51.624Z,101539.41
2024-04-13T15:57:18.271Z,101527.69
2024-04-13T15:59:47.469Z,101530.91
2024-04-13T16:02:14.956Z,101538.31
2024-04-13T16:04:42.667Z,101528.03
2024-04-13T16:07:09.286Z,101530.97
2024-04-13T16:09:35.982Z,101518.41
2024-04-13T16:12:02.530Z,101514.50
2024-04-13T16:14:31.636Z,101499.25
2024-04-13T16:16:58.465Z,101505.31
2024-04-13T16:19:25.120Z,101494.63
2024-04-13T16:21:51.714Z,101490.09
2024-04-13T16:24:20.480Z,101490.34
2024-04-13T16:26:47.358Z,101482.28
2024-04-13T16:29:15.725Z,101476.44
2024-04-13T16:31:44.573Z,101476.41
2024-04-13T16:34:11.098Z,101473.75
2024-04-13T16:36:38.029Z,101475.66
2024-04-13T16:39:05.462Z,101458.56
2024-04-13T16:41:34.373Z,101447.03
2024-04-13T16:44:00.924Z,101458.06
2024-04-13T16:46:29.581Z,101446.25
2024-04-13T16:48:59.044Z,101447.91
2024-04-13T16:51:25.907Z,101439.63
2024-04-13T16:53:54.635Z,101435.06
2024-04-13T16:56:25.958Z,101447.56
2024-04-13T16:58:54.763Z,101440.94
2024-04-13T17:01:26.724Z,101442.28
2024-04-13T17:03:53.351Z,101432.59
2024-04-13T17:06:19.854Z,101423.00
2024-04-13T17:08:46.810Z,101419.63
2024-04-13T17:11:13.381Z,101422.78
2024-04-13T17:13:39.967Z,101419.22
2024-04-13T17:16:07.780Z,101419.00
2024-04-13T17:18:34.585Z,101408.06
2024-04-13T17:21:02.796Z,101414.13
2024-04-13T17:23:29.662Z,101405.34
2024-04-13T17:25:58.367Z,101417.59
2024-04-13T17:28:27.336Z,101419.34
2024-04-13T17:30:54.128Z,101414.28
2024-04-13T17:33:20.827Z,101399.53
2024-04-13T17:35:47.838Z,101398.44
2024-04-13T17:38:14.363Z,101400.34
2024-04-13T17:40:40.982Z,101389.28
2024-04-13T17:43:07.535Z,101397.88
2024-04-13T17:45:36.649Z,101390.59
2024-04-13T17:48:03.550Z,101371.03
2024-04-13T17:50:30.441Z,101384.09
2024-04-13T17:52:56.984Z,101379.88
2024-04-13T17:55:27.023Z,101384.47
2024-04-13T17:57:54.177Z,101368.84
2024-04-13T18:00:20.947Z,101374.59
2024-04-13T18:02:47.506Z,101375.41
2024-04-13T18:05:14.571Z,101368.69
2024-04-13T18:07:45.172Z,101367.88
2024-04-13T18:10:11.701Z,101363.88
2024-04-13T18:12:39.479Z,101365.84
2024-04-13T18:15:06.344Z,101365.31
2024-04-13T18:17:33.449Z,101370.94
2024-04-13T18:20:02.395Z,101369.63
2024-04-13T18:22:28.947Z,101371.81
2024-04-13T18:24:55.544Z,101368.13
2024-04-13T18:27:22.664Z,101358.56
2024-04-13T18:29:49.258Z,101360.59
2024-04-13T18:32:18.967Z,101353.25
2024-04-13T18:34:46.094Z,101346.13
2024-04-13T18:37:12.651Z,101344.28
2024-04-13T18:39:39.231Z,101341.19
2024-04-13T18:42:05.914Z,101343.00
2024-04-13T18:44:32.507Z,101330.72
2024-04-13T18:47:00.138Z,101348.56
2024-04-13T18:49:29.175Z,101347.06
2024-04-13T18:51:55.789Z,101345.41
2024-04-13T18:54:25.440Z,101343.69
2024-04-13T18:56:52.167Z,101338.03
2024-04-13T18:59:18.701Z,101332.63
2024-04-13T19:01:45.948Z,101334.00
2024-04-13T19:04:12.657Z,101329.84
2024-04-13T19:06:39.517Z,101325.13
2024-04-13T19:09:06.111Z,101325.44
2024-04-13T19:11:32.720Z,101327.22
2024-04-13T19:14:04.375Z,101322.13
2024-04-13T19:16:30.996Z,101320.38
2024-04-13T19:18:57.716Z,101321.47
2024-04-13T19:21:24.227Z,101320.00
2024-04-13T19:23:53.405Z,101323.47
2024-04-13T19:26:21.517Z,101319.59
2024-04-13T19:28:48.275Z,101316.94
2024-04-13T19:31:14.877Z,101315.53
2024-04-13T19:33:41.615Z,101313.28
2024-04-13T19:36:08.194Z,101315.22
2024-04-13T19:38:34.749Z,101308.72
2024-04-13T19:41:01.509Z,101305.91
2024-04-13T19:43:27.939Z,101303.44
2024-04-13T19:45:54.528Z,101303.25
2024-04-13T19:48:21.253Z,101293.28
2024-04-13T19:50:47.843Z,101290.28
2024-04-13T19:53:14.398Z,101297.63
2024-04-13T19:55:41.113Z,101294.91
2024-04-13T19:58:12.260Z,101250.97
2024-04-13T20:00:40.430Z,101284.13
2024-04-13T20:03:07.244Z,101274.06
2024-04-13T20:05:35.264Z,101282.84
2024-04-13T20:08:04.438Z,101273.88
2024-04-13T20:10:33.154Z,101269.56
2024-04-13T20:12:59.979Z,101261.69
2024-04-13T20:15:45.108Z,101270.63
2024-04-13T20:18:30.739Z,101242.03
2024-04-13T20:21:02.257Z,101246.13
2024-04-13T20:23:31.141Z,101252.91
2024-04-13T20:25:57.692Z,101249.13
2024-04-13T20:28:28.983Z,101244.38
2024-04-13T20:30:55.635Z,101251.31
2024-04-13T20:33:25.603Z,101241.28
2024-04-13T20:35:55.083Z,101233.50
2024-04-13T20:38:22.010Z,101240.97
2024-04-13T20:40:48.655Z,101209.81
2024-04-13T20:43:17.747Z,101223.59
2024-04-13T20:45:46.351Z,101231.25
2024-04-13T20:48:13.098Z,101214.09
2024-04-13T20:50:41.499Z,101216.59
2024-04-13T20:53:10.801Z,101210.19
2024-04-13T20:55:37.400Z,101216.69
2024-04-13T20:58:04.235Z,101220.34
2024-04-13T21:00:33.580Z,101214.53
2024-04-13T21:03:00.281Z,101218.09
2024-04-13T21:05:31.700Z,101200.53
2024-04-13T21:07:58.428Z,101212.94
2024-04-13T21:10:24.980Z,101207.97
2024-04-13T21:12:51.764Z,101207.75
2024-04-13T21:15:20.581Z,101200.53
2024-04-13T21:17:47.287Z,101205.91
2024-04-13T21:20:16.936Z,101175.84
2024-04-13T21:22:45.721Z,101200.75
2024-04-13T21:25:12.245Z,101196.41
2024-04-13T21:27:38.862Z,101194.69
2024-04-13T21:30:06.057Z,101192.53
2024-04-13T21:32:36.616Z,101187.38
2024-04-13T21:35:03.274Z,101154.06
2024-04-13T21:37:32.404Z,101168.94
2024-04-13T21:40:01.141Z,101174.13
2024-04-13T21:42:29.912Z,101174.75
2024-04-13T21:44:59.910Z,101141.00
2024-04-13T21:47:26.558Z,101162.25
2024-04-13T21:49:55.628Z,101149.72
2024-04-13T21:52:22.232Z,101160.41
2024-04-13T21:54:49.119Z,101147.34
2024-04-13T21:57:15.759Z,101158.03
2024-04-13T21:59:43.404Z,101117.53
2024-04-13T22:02:11.508Z,101135.63
2024-04-13T22:04:38.231Z,101136.25
2024-04-13T22:07:07.522Z,101134.94
2024-04-13T22:09:34.176Z,101105.00
2024-04-13T22:12:02.275Z,101121.25
2024-04-13T22:14:28.909Z,101108.34
2024-04-13T22:16:56.834Z,101119.78
2024-04-13T22:19:26.226Z,101123.53
2024-04-13T22:21:52.883Z,101112.53
2024-04-13T22:24:21.212Z,101109.94
2024-04-13T22:26:47.882Z,101108.56
2024-04-13T22:29:16.596Z,101107.91
2024-04-13T22:31:48.026Z,101098.00
2024-04-13T22:34:15.569Z,101100.81
2024-04-13T22:36:42.168Z,101099.94
2024-04-13T22:39:09.187Z,101069.97
2024-04-13T22:41:35.741Z,101087.72
2024-04-13T22:44:02.346Z,101084.19
2024-04-13T22:46:29.029Z,101082.91
2024-04-13T22:48:57.780Z,101082.50
2024-04-13T22:51:24.443Z,101082.78
2024-04-13T22:53:51.120Z,101077.84
2024-04-13T22:56:20.138Z,101074.09
2024-04-13T22:58:46.750Z,101068.59
2024-04-13T23:01:13.367Z,101064.69
2024-04-13T23:03:40.068Z,101054.69
2024-04-13T23:06:06.843Z,101034.34
2024-04-13T23:08:35.528Z,101057.50
2024-04-13T23:11:04.579Z,101037.56
2024-04-13T23:13:33.987Z,101050.19
2024-04-13T23:16:01.967Z,101045.44
2024-04-13T23:18:28.819Z,101037.56
2024-04-13T23:20:57.855Z,101047.03
2024-04-13T23:23:24.417Z,101029.91
2024-04-13T23:25:50.950Z,101035.31
2024-04-13T23:28:17.702Z,101043.06
2024-04-13T23:30:46.656Z,101032.91
2024-04-13T23:33:14.062Z,101034.66
2024-04-13T23:35:40.666Z,101029.16
2024-04-13T23:38:09.563Z,101029.47
2024-04-13T23:40:39.092Z,101030.00
2024-04-13T23:43:05.789Z,101030.34
2024-04-13T23:45:37.301Z,101025.94
2024-04-13T23:48:09.400Z,101023.56
2024-04-13T23:50:38.047Z,101019.16
2024-04-13T23:53:07.211Z,101018.06
2024-04-13T23:55:33.777Z,101013.31
2024-04-13T23:58:00.289Z,100999.84
